sensor_id;sensor_type;location;lat;lon;timestamp;P1;durP1;ratioP1;P2;durP2;ratioP2
6941;SDS011;3510;43.200;27.920;2023-04-03T00:02:03;8.30;;;7.50;;
6941;SDS011;3510;43.200;27.920;2023-04-03T00:04:30;8.80;;;7.40;;
6941;SDS011;3510;43.200;27.920;2023-04-03T00:06:58;6.77;;;6.17;;
6941;SDS011;3510;43.200;27.920;2023-04-03T00:09:25;7.30;;;6.60;;
6941;SDS011;3510;43.200;27.920;2023-04-03T00:11:52;6.37;;;5.87;;
6941;SDS011;3510;43.200;27.920;2023-04-03T00:14:18;6.90;;;6.30;;
6941;SDS011;3510;43.200;27.920;2023-04-03T00:16:45;10.97;;;6.17;;
6941;SDS011;3510;43.200;27.920;2023-04-03T00:19:13;6.90;;;6.17;;
6941;SDS011;3510;43.200;27.920;2023-04-03T00:21:40;6.87;;;6.30;;
6941;SDS011;3510;43.200;27.920;2023-04-03T00:24:07;10.33;;;5.63;;
6941;SDS011;3510;43.200;27.920;2023-04-03T00:26:33;9.17;;;5.90;;
6941;SDS011;3510;43.200;27.920;2023-04-03T00:29:00;8.40;;;4.77;;
6941;SDS011;3510;43.200;27.920;2023-04-03T00:31:27;5.87;;;4.77;;
6941;SDS011;3510;43.200;27.920;2023-04-03T00:33:53;4.97;;;4.60;;
6941;SDS011;3510;43.200;27.920;2023-04-03T00:36:21;3.73;;;3.43;;
6941;SDS011;3510;43.200;27.920;2023-04-03T00:38:48;5.10;;;3.93;;
6941;SDS011;3510;43.200;27.920;2023-04-03T00:41:15;4.47;;;4.07;;
6941;SDS011;3510;43.200;27.920;2023-04-03T00:43:42;5.23;;;4.73;;
6941;SDS011;3510;43.200;27.920;2023-04-03T00:46:09;6.23;;;5.07;;
6941;SDS011;3510;43.200;27.920;2023-04-03T00:48:36;7.87;;;4.97;;
6941;SDS011;3510;43.200;27.920;2023-04-03T00:51:07;4.80;;;4.50;;
6941;SDS011;3510;43.200;27.920;2023-04-03T00:53:40;7.13;;;4.83;;
6941;SDS011;3510;43.200;27.920;2023-04-03T00:56:10;6.00;;;5.23;;
6941;SDS011;3510;43.200;27.920;2023-04-03T00:58:43;5.57;;;4.27;;
6941;SDS011;3510;43.200;27.920;2023-04-03T01:01:16;6.23;;;4.83;;
6941;SDS011;3510;43.200;27.920;2023-04-03T01:03:47;6.13;;;5.07;;
6941;SDS011;3510;43.200;27.920;2023-04-03T01:06:14;6.23;;;5.33;;
6941;SDS011;3510;43.200;27.920;2023-04-03T01:08:44;5.37;;;4.87;;
6941;SDS011;3510;43.200;27.920;2023-04-03T01:11:12;5.17;;;4.77;;
6941;SDS011;3510;43.200;27.920;2023-04-03T01:13:38;7.93;;;5.30;;
6941;SDS011;3510;43.200;27.920;2023-04-03T01:16:06;6.23;;;5.73;;
6941;SDS011;3510;43.200;27.920;2023-04-03T01:18:34;8.93;;;6.50;;
6941;SDS011;3510;43.200;27.920;2023-04-03T01:21:11;8.03;;;5.53;;
6941;SDS011;3510;43.200;27.920;2023-04-03T01:23:59;13.70;;;6.93;;
6941;SDS011;3510;43.200;27.920;2023-04-03T01:26:37;11.27;;;7.27;;
6941;SDS011;3510;43.200;27.920;2023-04-03T01:29:06;6.57;;;5.97;;
6941;SDS011;3510;43.200;27.920;2023-04-03T01:31:44;6.97;;;5.33;;
6941;SDS011;3510;43.200;27.920;2023-04-03T01:34:13;6.50;;;5.90;;
6941;SDS011;3510;43.200;27.920;2023-04-03T01:36:39;8.23;;;5.30;;
6941;SDS011;3510;43.200;27.920;2023-04-03T01:39:06;6.37;;;5.03;;
6941;SDS011;3510;43.200;27.920;2023-04-03T01:41:33;7.37;;;6.17;;
6941;SDS011;3510;43.200;27.920;2023-04-03T01:44:00;22.77;;;15.07;;
6941;SDS011;3510;43.200;27.920;2023-04-03T01:46:27;37.47;;;25.97;;
6941;SDS011;3510;43.200;27.920;2023-04-03T01:48:55;23.50;;;18.53;;
6941;SDS011;3510;43.200;27.920;2023-04-03T01:51:22;20.53;;;16.60;;
6941;SDS011;3510;43.200;27.920;2023-04-03T01:53:49;22.17;;;19.77;;
6941;SDS011;3510;43.200;27.920;2023-04-03T01:56:16;17.93;;;13.23;;
6941;SDS011;3510;43.200;27.920;2023-04-03T01:58:43;17.00;;;11.63;;
6941;SDS011;3510;43.200;27.920;2023-04-03T02:01:10;21.27;;;13.13;;
6941;SDS011;3510;43.200;27.920;2023-04-03T02:03:37;23.67;;;14.13;;
6941;SDS011;3510;43.200;27.920;2023-04-03T02:06:05;31.77;;;15.17;;
6941;SDS011;3510;43.200;27.920;2023-04-03T02:08:32;18.90;;;12.57;;
6941;SDS011;3510;43.200;27.920;2023-04-03T02:10:59;16.83;;;9.80;;
6941;SDS011;3510;43.200;27.920;2023-04-03T02:13:26;27.83;;;12.17;;
6941;SDS011;3510;43.200;27.920;2023-04-03T02:15:53;21.07;;;8.97;;
6941;SDS011;3510;43.200;27.920;2023-04-03T02:18:19;20.90;;;13.60;;
6941;SDS011;3510;43.200;27.920;2023-04-03T02:20:46;17.93;;;11.90;;
6941;SDS011;3510;43.200;27.920;2023-04-03T02:23:14;24.30;;;13.03;;
6941;SDS011;3510;43.200;27.920;2023-04-03T02:25:41;20.93;;;12.67;;
6941;SDS011;3510;43.200;27.920;2023-04-03T02:28:08;28.80;;;17.93;;
6941;SDS011;3510;43.200;27.920;2023-04-03T02:30:35;28.40;;;16.40;;
6941;SDS011;3510;43.200;27.920;2023-04-03T02:33:02;23.10;;;14.60;;
6941;SDS011;3510;43.200;27.920;2023-04-03T02:35:29;27.73;;;19.70;;
6941;SDS011;3510;43.200;27.920;2023-04-03T02:37:55;20.87;;;15.20;;
6941;SDS011;3510;43.200;27.920;2023-04-03T02:40:23;29.17;;;16.60;;
6941;SDS011;3510;43.200;27.920;2023-04-03T02:42:50;25.80;;;17.13;;
6941;SDS011;3510;43.200;27.920;2023-04-03T02:45:17;35.93;;;19.93;;
6941;SDS011;3510;43.200;27.920;2023-04-03T02:47:43;31.60;;;20.77;;
6941;SDS011;3510;43.200;27.920;2023-04-03T02:50:10;30.93;;;24.20;;
6941;SDS011;3510;43.200;27.920;2023-04-03T02:52:37;29.77;;;20.33;;
6941;SDS011;3510;43.200;27.920;2023-04-03T02:55:04;34.20;;;20.90;;
6941;SDS011;3510;43.200;27.920;2023-04-03T02:57:33;37.47;;;23.47;;
6941;SDS011;3510;43.200;27.920;2023-04-03T03:00:01;36.07;;;23.43;;
6941;SDS011;3510;43.200;27.920;2023-04-03T03:02:28;46.33;;;26.63;;
6941;SDS011;3510;43.200;27.920;2023-04-03T03:04:55;44.10;;;26.17;;
6941;SDS011;3510;43.200;27.920;2023-04-03T03:07:22;69.40;;;42.28;;
6941;SDS011;3510;43.200;27.920;2023-04-03T03:09:48;57.13;;;31.47;;
6941;SDS011;3510;43.200;27.920;2023-04-03T03:12:15;33.97;;;21.23;;
6941;SDS011;3510;43.200;27.920;2023-04-03T03:14:47;29.37;;;24.00;;
6941;SDS011;3510;43.200;27.920;2023-04-03T03:17:14;28.30;;;14.60;;
6941;SDS011;3510;43.200;27.920;2023-04-03T03:19:41;26.00;;;14.60;;
6941;SDS011;3510;43.200;27.920;2023-04-03T03:22:08;26.92;;;19.35;;
6941;SDS011;3510;43.200;27.920;2023-04-03T03:24:35;29.13;;;19.63;;
6941;SDS011;3510;43.200;27.920;2023-04-03T03:27:02;31.77;;;20.73;;
6941;SDS011;3510;43.200;27.920;2023-04-03T03:29:30;28.80;;;18.80;;
6941;SDS011;3510;43.200;27.920;2023-04-03T03:31:58;27.08;;;19.77;;
6941;SDS011;3510;43.200;27.920;2023-04-03T03:34:25;29.75;;;20.20;;
6941;SDS011;3510;43.200;27.920;2023-04-03T03:36:51;24.88;;;18.58;;
6941;SDS011;3510;43.200;27.920;2023-04-03T03:39:18;31.58;;;21.40;;
6941;SDS011;3510;43.200;27.920;2023-04-03T03:41:45;32.85;;;20.95;;
6941;SDS011;3510;43.200;27.920;2023-04-03T03:44:11;28.33;;;19.95;;
6941;SDS011;3510;43.200;27.920;2023-04-03T03:46:38;30.27;;;21.00;;
6941;SDS011;3510;43.200;27.920;2023-04-03T03:49:06;31.08;;;22.38;;
6941;SDS011;3510;43.200;27.920;2023-04-03T03:51:33;28.67;;;21.15;;
6941;SDS011;3510;43.200;27.920;2023-04-03T03:54:00;30.65;;;21.33;;
6941;SDS011;3510;43.200;27.920;2023-04-03T03:56:27;26.00;;;19.67;;
6941;SDS011;3510;43.200;27.920;2023-04-03T03:58:54;27.75;;;19.20;;
6941;SDS011;3510;43.200;27.920;2023-04-03T04:01:22;23.45;;;18.83;;
6941;SDS011;3510;43.200;27.920;2023-04-03T04:03:49;28.92;;;18.23;;
6941;SDS011;3510;43.200;27.920;2023-04-03T04:06:17;22.70;;;18.40;;
6941;SDS011;3510;43.200;27.920;2023-04-03T04:08:44;24.65;;;20.17;;
6941;SDS011;3510;43.200;27.920;2023-04-03T04:11:11;28.48;;;19.70;;
6941;SDS011;3510;43.200;27.920;2023-04-03T04:13:38;30.73;;;21.53;;
6941;SDS011;3510;43.200;27.920;2023-04-03T04:16:04;26.25;;;18.88;;
6941;SDS011;3510;43.200;27.920;2023-04-03T04:18:32;32.03;;;19.63;;
6941;SDS011;3510;43.200;27.920;2023-04-03T04:20:58;37.28;;;22.92;;
6941;SDS011;3510;43.200;27.920;2023-04-03T04:23:27;31.13;;;21.47;;
6941;SDS011;3510;43.200;27.920;2023-04-03T04:25:53;29.67;;;20.07;;
6941;SDS011;3510;43.200;27.920;2023-04-03T04:28:20;27.85;;;18.52;;
6941;SDS011;3510;43.200;27.920;2023-04-03T04:30:47;30.30;;;18.58;;
6941;SDS011;3510;43.200;27.920;2023-04-03T04:33:13;22.77;;;14.90;;
6941;SDS011;3510;43.200;27.920;2023-04-03T04:35:41;18.35;;;14.18;;
6941;SDS011;3510;43.200;27.920;2023-04-03T04:38:09;17.83;;;12.57;;
6941;SDS011;3510;43.200;27.920;2023-04-03T04:40:37;15.50;;;12.75;;
6941;SDS011;3510;43.200;27.920;2023-04-03T04:43:03;15.15;;;11.88;;
6941;SDS011;3510;43.200;27.920;2023-04-03T04:45:30;18.33;;;12.20;;
6941;SDS011;3510;43.200;27.920;2023-04-03T04:47:57;19.25;;;11.75;;
6941;SDS011;3510;43.200;27.920;2023-04-03T04:50:24;14.50;;;12.35;;
6941;SDS011;3510;43.200;27.920;2023-04-03T04:52:51;16.25;;;13.77;;
6941;SDS011;3510;43.200;27.920;2023-04-03T04:55:18;25.70;;;17.15;;
6941;SDS011;3510;43.200;27.920;2023-04-03T04:57:47;36.28;;;25.17;;
6941;SDS011;3510;43.200;27.920;2023-04-03T05:00:14;41.03;;;29.73;;
6941;SDS011;3510;43.200;27.920;2023-04-03T05:02:42;45.83;;;27.98;;
6941;SDS011;3510;43.200;27.920;2023-04-03T05:05:09;39.78;;;29.17;;
6941;SDS011;3510;43.200;27.920;2023-04-03T05:07:36;32.50;;;18.95;;
6941;SDS011;3510;43.200;27.920;2023-04-03T05:10:03;22.30;;;15.07;;
6941;SDS011;3510;43.200;27.920;2023-04-03T05:12:30;18.42;;;12.45;;
6941;SDS011;3510;43.200;27.920;2023-04-03T05:14:59;23.63;;;11.77;;
6941;SDS011;3510;43.200;27.920;2023-04-03T05:17:26;15.80;;;11.85;;
6941;SDS011;3510;43.200;27.920;2023-04-03T05:19:53;14.77;;;11.15;;
6941;SDS011;3510;43.200;27.920;2023-04-03T05:22:19;13.68;;;10.55;;
6941;SDS011;3510;43.200;27.920;2023-04-03T05:24:46;15.63;;;11.82;;
6941;SDS011;3510;43.200;27.920;2023-04-03T05:27:13;15.77;;;10.43;;
6941;SDS011;3510;43.200;27.920;2023-04-03T05:29:40;13.68;;;9.23;;
6941;SDS011;3510;43.200;27.920;2023-04-03T05:32:10;17.17;;;8.53;;
6941;SDS011;3510;43.200;27.920;2023-04-03T05:34:36;10.60;;;9.38;;
6941;SDS011;3510;43.200;27.920;2023-04-03T05:37:03;11.05;;;9.50;;
6941;SDS011;3510;43.200;27.920;2023-04-03T05:39:44;10.82;;;9.40;;
6941;SDS011;3510;43.200;27.920;2023-04-03T05:42:25;10.03;;;8.90;;
6941;SDS011;3510;43.200;27.920;2023-04-03T05:45:06;20.83;;;8.97;;
6941;SDS011;3510;43.200;27.920;2023-04-03T05:47:48;10.03;;;8.63;;
6941;SDS011;3510;43.200;27.920;2023-04-03T05:50:15;10.33;;;8.00;;
6941;SDS011;3510;43.200;27.920;2023-04-03T05:52:42;12.60;;;7.57;;
6941;SDS011;3510;43.200;27.920;2023-04-03T05:55:11;7.87;;;7.13;;
6941;SDS011;3510;43.200;27.920;2023-04-03T05:57:38;8.30;;;7.47;;
6941;SDS011;3510;43.200;27.920;2023-04-03T06:00:19;9.27;;;7.23;;
6941;SDS011;3510;43.200;27.920;2023-04-03T06:06:13;8.37;;;7.57;;
6941;SDS011;3510;43.200;27.920;2023-04-03T06:08:40;10.33;;;7.33;;
6941;SDS011;3510;43.200;27.920;2023-04-03T06:11:08;8.60;;;6.70;;
6941;SDS011;3510;43.200;27.920;2023-04-03T06:13:35;9.13;;;7.20;;
6941;SDS011;3510;43.200;27.920;2023-04-03T06:16:03;14.40;;;6.70;;
6941;SDS011;3510;43.200;27.920;2023-04-03T06:18:30;7.30;;;5.73;;
6941;SDS011;3510;43.200;27.920;2023-04-03T06:20:58;8.23;;;5.93;;
6941;SDS011;3510;43.200;27.920;2023-04-03T06:23:27;7.43;;;6.67;;
6941;SDS011;3510;43.200;27.920;2023-04-03T06:25:53;7.57;;;5.80;;
6941;SDS011;3510;43.200;27.920;2023-04-03T06:28:20;7.47;;;5.07;;
6941;SDS011;3510;43.200;27.920;2023-04-03T06:30:47;5.53;;;5.03;;
6941;SDS011;3510;43.200;27.920;2023-04-03T06:33:14;6.13;;;4.63;;
6941;SDS011;3510;43.200;27.920;2023-04-03T06:35:41;8.20;;;6.07;;
6941;SDS011;3510;43.200;27.920;2023-04-03T06:38:07;11.77;;;4.93;;
6941;SDS011;3510;43.200;27.920;2023-04-03T06:40:36;4.60;;;4.13;;
6941;SDS011;3510;43.200;27.920;2023-04-03T06:43:03;12.05;;;5.15;;
6941;SDS011;3510;43.200;27.920;2023-04-03T06:45:30;5.80;;;5.20;;
6941;SDS011;3510;43.200;27.920;2023-04-03T06:47:57;5.25;;;3.90;;
6941;SDS011;3510;43.200;27.920;2023-04-03T06:50:23;11.80;;;7.40;;
6941;SDS011;3510;43.200;27.920;2023-04-03T06:52:51;9.20;;;5.32;;
6941;SDS011;3510;43.200;27.920;2023-04-03T06:55:17;8.75;;;5.35;;
6941;SDS011;3510;43.200;27.920;2023-04-03T06:57:46;13.27;;;5.22;;
6941;SDS011;3510;43.200;27.920;2023-04-03T07:00:13;15.35;;;5.40;;
6941;SDS011;3510;43.200;27.920;2023-04-03T07:02:41;10.57;;;5.82;;
6941;SDS011;3510;43.200;27.920;2023-04-03T07:05:08;21.73;;;6.05;;
6941;SDS011;3510;43.200;27.920;2023-04-03T07:07:35;16.42;;;6.15;;
6941;SDS011;3510;43.200;27.920;2023-04-03T07:10:03;8.85;;;5.00;;
6941;SDS011;3510;43.200;27.920;2023-04-03T07:12:30;10.65;;;5.63;;
6941;SDS011;3510;43.200;27.920;2023-04-03T07:14:59;8.43;;;4.40;;
6941;SDS011;3510;43.200;27.920;2023-04-03T07:17:26;11.63;;;6.95;;
6941;SDS011;3510;43.200;27.920;2023-04-03T07:19:53;16.55;;;9.98;;
6941;SDS011;3510;43.200;27.920;2023-04-03T07:22:19;7.35;;;4.93;;
6941;SDS011;3510;43.200;27.920;2023-04-03T07:24:46;5.05;;;3.95;;
6941;SDS011;3510;43.200;27.920;2023-04-03T07:49:21;6.43;;;3.63;;
6941;SDS011;3510;43.200;27.920;2023-04-03T07:51:49;17.70;;;5.28;;
6941;SDS011;3510;43.200;27.920;2023-04-03T07:54:16;4.40;;;4.00;;
6941;SDS011;3510;43.200;27.920;2023-04-03T07:56:43;4.60;;;3.80;;
6941;SDS011;3510;43.200;27.920;2023-04-03T07:59:10;5.63;;;4.10;;
6941;SDS011;3510;43.200;27.920;2023-04-03T08:01:37;8.85;;;4.00;;
6941;SDS011;3510;43.200;27.920;2023-04-03T08:04:04;5.22;;;3.92;;
6941;SDS011;3510;43.200;27.920;2023-04-03T08:06:33;7.57;;;3.92;;
6941;SDS011;3510;43.200;27.920;2023-04-03T08:09:01;4.32;;;3.75;;
6941;SDS011;3510;43.200;27.920;2023-04-03T08:11:30;8.05;;;5.30;;
6941;SDS011;3510;43.200;27.920;2023-04-03T08:13:57;5.05;;;3.97;;
6941;SDS011;3510;43.200;27.920;2023-04-03T08:16:24;8.65;;;3.80;;
6941;SDS011;3510;43.200;27.920;2023-04-03T08:18:53;8.90;;;3.85;;
6941;SDS011;3510;43.200;27.920;2023-04-03T08:21:33;6.25;;;4.78;;
6941;SDS011;3510;43.200;27.920;2023-04-03T11:57:01;5.82;;;5.18;;
6941;SDS011;3510;43.200;27.920;2023-04-03T11:59:59;6.03;;;5.30;;
6941;SDS011;3510;43.200;27.920;2023-04-03T12:02:51;6.50;;;5.90;;
6941;SDS011;3510;43.200;27.920;2023-04-03T12:05:55;6.30;;;5.80;;
6941;SDS011;3510;43.200;27.920;2023-04-03T12:08:43;6.50;;;6.00;;
6941;SDS011;3510;43.200;27.920;2023-04-03T12:11:25;6.73;;;6.13;;
6941;SDS011;3510;43.200;27.920;2023-04-03T12:50:52;9.90;;;6.43;;
6941;SDS011;3510;43.200;27.920;2023-04-03T12:53:21;7.25;;;5.68;;
6941;SDS011;3510;43.200;27.920;2023-04-03T12:55:53;7.63;;;5.47;;
6941;SDS011;3510;43.200;27.920;2023-04-03T12:58:21;5.87;;;5.33;;
6941;SDS011;3510;43.200;27.920;2023-04-03T13:16:32;6.53;;;4.73;;
6941;SDS011;3510;43.200;27.920;2023-04-03T13:19:05;6.90;;;4.90;;
6941;SDS011;3510;43.200;27.920;2023-04-03T13:21:32;6.33;;;4.90;;
6941;SDS011;3510;43.200;27.920;2023-04-03T13:24:01;7.13;;;5.00;;
6941;SDS011;3510;43.200;27.920;2023-04-03T13:26:30;5.70;;;5.20;;
6941;SDS011;3510;43.200;27.920;2023-04-03T13:28:59;9.23;;;7.90;;
6941;SDS011;3510;43.200;27.920;2023-04-03T13:31:30;6.07;;;4.43;;
6941;SDS011;3510;43.200;27.920;2023-04-03T13:34:02;5.43;;;4.97;;
6941;SDS011;3510;43.200;27.920;2023-04-03T13:36:33;4.37;;;4.03;;
6941;SDS011;3510;43.200;27.920;2023-04-03T13:39:03;7.77;;;4.87;;
6941;SDS011;3510;43.200;27.920;2023-04-03T13:41:32;10.63;;;4.77;;
6941;SDS011;3510;43.200;27.920;2023-04-03T13:46:43;6.20;;;5.23;;
6941;SDS011;3510;43.200;27.920;2023-04-03T13:49:20;6.93;;;5.10;;
6941;SDS011;3510;43.200;27.920;2023-04-03T13:51:49;5.00;;;4.60;;
6941;SDS011;3510;43.200;27.920;2023-04-03T13:54:17;5.97;;;4.70;;
6941;SDS011;3510;43.200;27.920;2023-04-03T13:56:47;9.90;;;4.87;;
6941;SDS011;3510;43.200;27.920;2023-04-03T13:59:21;10.27;;;4.97;;
6941;SDS011;3510;43.200;27.920;2023-04-03T14:01:53;5.27;;;4.83;;
6941;SDS011;3510;43.200;27.920;2023-04-03T14:04:44;8.17;;;4.77;;
6941;SDS011;3510;43.200;27.920;2023-04-03T14:07:16;5.23;;;4.73;;
6941;SDS011;3510;43.200;27.920;2023-04-03T14:09:45;7.30;;;4.70;;
6941;SDS011;3510;43.200;27.920;2023-04-03T14:12:13;5.57;;;4.90;;
6941;SDS011;3510;43.200;27.920;2023-04-03T14:14:45;5.20;;;4.70;;
6941;SDS011;3510;43.200;27.920;2023-04-03T14:17:16;4.70;;;4.30;;
6941;SDS011;3510;43.200;27.920;2023-04-03T14:19:46;13.73;;;5.00;;
6941;SDS011;3510;43.200;27.920;2023-04-03T14:22:15;7.03;;;3.93;;
6941;SDS011;3510;43.200;27.920;2023-04-03T14:24:58;10.10;;;4.67;;
6941;SDS011;3510;43.200;27.920;2023-04-03T14:27:27;4.50;;;4.20;;
6941;SDS011;3510;43.200;27.920;2023-04-03T14:29:56;4.10;;;3.70;;
6941;SDS011;3510;43.200;27.920;2023-04-03T14:32:25;6.20;;;4.90;;
6941;SDS011;3510;43.200;27.920;2023-04-03T14:34:52;5.77;;;4.63;;
6941;SDS011;3510;43.200;27.920;2023-04-03T14:37:21;8.80;;;4.87;;
6941;SDS011;3510;43.200;27.920;2023-04-03T14:39:48;6.40;;;4.97;;
6941;SDS011;3510;43.200;27.920;2023-04-03T14:42:17;6.13;;;4.97;;
6941;SDS011;3510;43.200;27.920;2023-04-03T14:44:46;6.40;;;4.23;;
6941;SDS011;3510;43.200;27.920;2023-04-03T14:49:48;5.37;;;4.87;;
6941;SDS011;3510;43.200;27.920;2023-04-03T14:52:17;5.50;;;5.10;;
6941;SDS011;3510;43.200;27.920;2023-04-03T14:54:45;6.23;;;5.67;;
6941;SDS011;3510;43.200;27.920;2023-04-03T14:57:12;7.97;;;5.17;;
6941;SDS011;3510;43.200;27.920;2023-04-03T14:59:41;9.53;;;7.50;;
6941;SDS011;3510;43.200;27.920;2023-04-03T15:02:15;7.13;;;6.40;;
6941;SDS011;3510;43.200;27.920;2023-04-03T15:04:53;7.50;;;6.67;;
6941;SDS011;3510;43.200;27.920;2023-04-03T15:07:21;6.57;;;5.97;;
6941;SDS011;3510;43.200;27.920;2023-04-03T15:09:48;9.33;;;6.77;;
6941;SDS011;3510;43.200;27.920;2023-04-03T15:12:15;10.03;;;6.33;;
6941;SDS011;3510;43.200;27.920;2023-04-03T15:14:43;9.77;;;6.93;;
6941;SDS011;3510;43.200;27.920;2023-04-03T15:17:11;7.17;;;5.77;;
6941;SDS011;3510;43.200;27.920;2023-04-03T15:19:42;7.03;;;5.00;;
6941;SDS011;3510;43.200;27.920;2023-04-03T15:22:13;7.57;;;6.57;;
6941;SDS011;3510;43.200;27.920;2023-04-03T15:24:41;6.03;;;4.67;;
6941;SDS011;3510;43.200;27.920;2023-04-03T15:27:08;9.93;;;5.40;;
6941;SDS011;3510;43.200;27.920;2023-04-03T15:29:36;7.13;;;5.17;;
6941;SDS011;3510;43.200;27.920;2023-04-03T15:32:04;4.90;;;4.47;;
6941;SDS011;3510;43.200;27.920;2023-04-03T15:34:30;5.77;;;4.90;;
6941;SDS011;3510;43.200;27.920;2023-04-03T15:36:57;5.40;;;5.00;;
6941;SDS011;3510;43.200;27.920;2023-04-03T15:39:26;6.87;;;6.23;;
6941;SDS011;3510;43.200;27.920;2023-04-03T15:41:53;8.30;;;6.20;;
6941;SDS011;3510;43.200;27.920;2023-04-03T15:44:20;10.30;;;6.47;;
6941;SDS011;3510;43.200;27.920;2023-04-03T15:46:47;12.30;;;5.73;;
6941;SDS011;3510;43.200;27.920;2023-04-03T15:49:16;6.87;;;5.00;;
6941;SDS011;3510;43.200;27.920;2023-04-03T15:51:43;5.73;;;5.23;;
6941;SDS011;3510;43.200;27.920;2023-04-03T15:54:11;5.47;;;5.07;;
6941;SDS011;3510;43.200;27.920;2023-04-03T15:56:39;8.10;;;5.37;;
6941;SDS011;3510;43.200;27.920;2023-04-03T15:59:05;5.77;;;5.17;;
6941;SDS011;3510;43.200;27.920;2023-04-03T16:01:33;7.03;;;4.90;;
6941;SDS011;3510;43.200;27.920;2023-04-03T16:04:00;4.63;;;4.23;;
6941;SDS011;3510;43.200;27.920;2023-04-03T16:06:27;4.57;;;4.13;;
6941;SDS011;3510;43.200;27.920;2023-04-03T16:08:55;4.40;;;4.00;;
6941;SDS011;3510;43.200;27.920;2023-04-03T16:11:23;3.83;;;3.53;;
6941;SDS011;3510;43.200;27.920;2023-04-03T16:13:52;4.20;;;3.90;;
6941;SDS011;3510;43.200;27.920;2023-04-03T16:16:19;5.20;;;4.40;;
6941;SDS011;3510;43.200;27.920;2023-04-03T16:18:46;6.07;;;4.40;;
6941;SDS011;3510;43.200;27.920;2023-04-03T16:21:14;5.60;;;4.87;;
6941;SDS011;3510;43.200;27.920;2023-04-03T16:23:43;7.97;;;4.57;;
6941;SDS011;3510;43.200;27.920;2023-04-03T16:26:10;6.47;;;4.67;;
6941;SDS011;3510;43.200;27.920;2023-04-03T16:28:37;4.50;;;4.20;;
6941;SDS011;3510;43.200;27.920;2023-04-03T16:31:05;5.23;;;4.63;;
6941;SDS011;3510;43.200;27.920;2023-04-03T16:33:33;4.87;;;4.47;;
6941;SDS011;3510;43.200;27.920;2023-04-03T16:36:00;7.27;;;5.30;;
6941;SDS011;3510;43.200;27.920;2023-04-03T16:38:28;6.00;;;5.47;;
6941;SDS011;3510;43.200;27.920;2023-04-03T16:40:55;5.83;;;5.37;;
6941;SDS011;3510;43.200;27.920;2023-04-03T16:43:24;7.37;;;4.87;;
6941;SDS011;3510;43.200;27.920;2023-04-03T16:45:51;7.00;;;5.53;;
6941;SDS011;3510;43.200;27.920;2023-04-03T16:48:19;5.87;;;5.37;;
6941;SDS011;3510;43.200;27.920;2023-04-03T16:50:46;5.10;;;4.60;;
6941;SDS011;3510;43.200;27.920;2023-04-03T16:53:15;12.17;;;5.03;;
6941;SDS011;3510;43.200;27.920;2023-04-03T16:55:42;5.67;;;5.10;;
6941;SDS011;3510;43.200;27.920;2023-04-03T16:58:09;9.10;;;5.00;;
6941;SDS011;3510;43.200;27.920;2023-04-03T17:00:36;5.40;;;4.90;;
6941;SDS011;3510;43.200;27.920;2023-04-03T17:03:02;7.10;;;5.47;;
6941;SDS011;3510;43.200;27.920;2023-04-03T17:05:30;6.50;;;4.97;;
6941;SDS011;3510;43.200;27.920;2023-04-03T17:07:57;6.83;;;5.13;;
6941;SDS011;3510;43.200;27.920;2023-04-03T17:10:24;5.60;;;5.03;;
6941;SDS011;3510;43.200;27.920;2023-04-03T17:12:51;9.47;;;5.43;;
6941;SDS011;3510;43.200;27.920;2023-04-03T17:15:18;8.57;;;6.00;;
6941;SDS011;3510;43.200;27.920;2023-04-03T17:17:45;6.50;;;6.00;;
6941;SDS011;3510;43.200;27.920;2023-04-03T17:20:13;7.63;;;5.67;;
6941;SDS011;3510;43.200;27.920;2023-04-03T17:22:41;5.40;;;4.90;;
6941;SDS011;3510;43.200;27.920;2023-04-03T17:25:09;5.87;;;5.37;;
6941;SDS011;3510;43.200;27.920;2023-04-03T17:27:36;7.17;;;5.40;;
6941;SDS011;3510;43.200;27.920;2023-04-03T17:30:05;5.37;;;4.97;;
6941;SDS011;3510;43.200;27.920;2023-04-03T17:32:33;5.63;;;4.23;;
6941;SDS011;3510;43.200;27.920;2023-04-03T17:34:59;5.53;;;5.03;;
6941;SDS011;3510;43.200;27.920;2023-04-03T17:37:26;4.73;;;4.37;;
6941;SDS011;3510;43.200;27.920;2023-04-03T17:39:54;8.07;;;5.23;;
6941;SDS011;3510;43.200;27.920;2023-04-03T17:42:21;5.33;;;4.97;;
6941;SDS011;3510;43.200;27.920;2023-04-03T17:44:47;5.40;;;4.90;;
6941;SDS011;3510;43.200;27.920;2023-04-03T17:47:14;5.90;;;5.27;;
6941;SDS011;3510;43.200;27.920;2023-04-03T17:49:54;5.47;;;5.07;;
6941;SDS011;3510;43.200;27.920;2023-04-03T17:52:21;5.00;;;4.60;;
6941;SDS011;3510;43.200;27.920;2023-04-03T18:01:26;6.10;;;5.60;;
6941;SDS011;3510;43.200;27.920;2023-04-03T18:03:55;4.93;;;4.53;;
6941;SDS011;3510;43.200;27.920;2023-04-03T18:06:24;5.37;;;4.90;;
6941;SDS011;3510;43.200;27.920;2023-04-03T18:08:53;5.27;;;3.97;;
6941;SDS011;3510;43.200;27.920;2023-04-03T18:11:25;5.27;;;4.73;;
6941;SDS011;3510;43.200;27.920;2023-04-03T18:13:53;5.77;;;5.20;;
6941;SDS011;3510;43.200;27.920;2023-04-03T18:16:22;4.97;;;4.57;;
6941;SDS011;3510;43.200;27.920;2023-04-03T18:18:51;4.40;;;4.10;;
6941;SDS011;3510;43.200;27.920;2023-04-03T18:21:18;6.77;;;4.83;;
6941;SDS011;3510;43.200;27.920;2023-04-03T18:23:45;4.87;;;4.53;;
6941;SDS011;3510;43.200;27.920;2023-04-03T18:26:15;5.03;;;4.53;;
6941;SDS011;3510;43.200;27.920;2023-04-03T18:28:43;5.27;;;4.27;;
6941;SDS011;3510;43.200;27.920;2023-04-03T18:31:14;6.77;;;4.70;;
6941;SDS011;3510;43.200;27.920;2023-04-03T18:33:47;6.03;;;4.57;;
6941;SDS011;3510;43.200;27.920;2023-04-03T18:36:19;4.13;;;3.20;;
6941;SDS011;3510;43.200;27.920;2023-04-03T18:38:46;8.23;;;4.37;;
6941;SDS011;3510;43.200;27.920;2023-04-03T18:41:13;5.20;;;3.90;;
6941;SDS011;3510;43.200;27.920;2023-04-03T18:43:40;4.60;;;4.10;;
6941;SDS011;3510;43.200;27.920;2023-04-03T18:46:07;5.27;;;3.60;;
6941;SDS011;3510;43.200;27.920;2023-04-03T18:48:34;4.17;;;3.83;;
6941;SDS011;3510;43.200;27.920;2023-04-03T18:51:05;4.33;;;3.93;;
6941;SDS011;3510;43.200;27.920;2023-04-03T18:53:33;3.33;;;3.13;;
6941;SDS011;3510;43.200;27.920;2023-04-03T18:56:00;4.83;;;3.63;;
6941;SDS011;3510;43.200;27.920;2023-04-03T18:58:27;7.43;;;3.17;;
6941;SDS011;3510;43.200;27.920;2023-04-03T19:00:54;4.10;;;3.23;;
6941;SDS011;3510;43.200;27.920;2023-04-03T19:03:21;4.07;;;3.03;;
6941;SDS011;3510;43.200;27.920;2023-04-03T19:05:48;5.00;;;3.37;;
6941;SDS011;3510;43.200;27.920;2023-04-03T19:08:15;3.73;;;3.47;;
6941;SDS011;3510;43.200;27.920;2023-04-03T19:10:43;3.90;;;3.50;;
6941;SDS011;3510;43.200;27.920;2023-04-03T19:13:11;3.37;;;3.07;;
6941;SDS011;3510;43.200;27.920;2023-04-03T19:15:40;5.13;;;4.37;;
6941;SDS011;3510;43.200;27.920;2023-04-03T19:18:09;4.43;;;3.53;;
6941;SDS011;3510;43.200;27.920;2023-04-03T19:20:39;7.73;;;4.10;;
6941;SDS011;3510;43.200;27.920;2023-04-03T19:23:06;3.67;;;3.33;;
6941;SDS011;3510;43.200;27.920;2023-04-03T19:25:33;4.40;;;3.43;;
6941;SDS011;3510;43.200;27.920;2023-04-03T19:28:03;4.37;;;3.70;;
6941;SDS011;3510;43.200;27.920;2023-04-03T19:30:33;4.10;;;3.03;;
6941;SDS011;3510;43.200;27.920;2023-04-03T19:33:00;5.50;;;3.23;;
6941;SDS011;3510;43.200;27.920;2023-04-03T19:35:27;3.90;;;3.23;;
6941;SDS011;3510;43.200;27.920;2023-04-03T19:37:54;4.00;;;3.63;;
6941;SDS011;3510;43.200;27.920;2023-04-03T19:40:21;6.20;;;3.97;;
6941;SDS011;3510;43.200;27.920;2023-04-03T19:42:49;3.63;;;3.33;;
6941;SDS011;3510;43.200;27.920;2023-04-03T19:45:18;4.33;;;3.63;;
6941;SDS011;3510;43.200;27.920;2023-04-03T19:47:46;5.00;;;3.27;;
6941;SDS011;3510;43.200;27.920;2023-04-03T19:50:13;4.13;;;3.50;;
6941;SDS011;3510;43.200;27.920;2023-04-03T19:52:40;5.50;;;3.80;;
6941;SDS011;3510;43.200;27.920;2023-04-03T19:55:07;4.90;;;3.80;;
6941;SDS011;3510;43.200;27.920;2023-04-03T19:57:34;4.10;;;3.57;;
6941;SDS011;3510;43.200;27.920;2023-04-03T20:00:00;4.73;;;3.70;;
6941;SDS011;3510;43.200;27.920;2023-04-03T20:02:29;3.80;;;3.50;;
6941;SDS011;3510;43.200;27.920;2023-04-03T20:04:56;4.43;;;4.03;;